Time;durP1;ratioP1;P1;durP2;ratioP2;P2;SDS_P1;SDS_P2;PMS_P1;PMS_P2;Temp;Humidity;BMP_temperature;BMP_pressure;BME280_temperature;BME280_humidity;BME280_pressure;Samples;Min_cycle;Max_cycle;Signal;HPM_P1;HPM_P2
2021/12/09 00:00:37;;;;;;;14.50;7.32;;;;;;;;;;5064044;28;20163;-71
2021/12/09 00:03:07;;;;;;;12.95;7.78;;;;;;;;;;5058479;28;20116;-71
2021/12/09 00:05:34;;;;;;;9.73;6.47;;;;;;;;;;5057780;28;20044;-71
2021/12/09 00:08:00;;;;;;;15.48;7.13;;;;;;;;;;5059024;28;20045;-71
2021/12/09 00:10:26;;;;;;;19.25;7.50;;;;;;;;;;5063579;28;20048;-71
2021/12/09 00:12:52;;;;;;;10.38;7.03;;;;;;;;;;5092893;28;20930;-71
2021/12/09 00:15:19;;;;;;;8.93;5.97;;;;;;;;;;5095395;28;20052;-71
2021/12/09 00:17:45;;;;;;;12.68;6.85;;;;;;;;;;5060500;28;20029;-71
2021/12/09 00:20:13;;;;;;;15.10;7.82;;;;;;;;;;5056500;28;20056;-71
2021/12/09 00:22:39;;;;;;;11.10;6.40;;;;;;;;;;5058233;28;20036;-71
2021/12/09 00:25:06;;;;;;;8.75;6.30;;;;;;;;;;5058628;28;20036;-71
2021/12/09 00:27:32;;;;;;;11.90;7.30;;;;;;;;;;5061607;28;20048;-71
2021/12/09 00:29:58;;;;;;;11.48;6.70;;;;;;;;;;5059192;28;20040;-72
2021/12/09 00:32:24;;;;;;;13.20;6.93;;;;;;;;;;5060080;28;20509;-71
2021/12/09 00:34:51;;;;;;;11.98;7.50;;;;;;;;;;5093874;27;20544;-71
2021/12/09 00:37:25;;;;;;;12.60;7.80;;;;;;;;;;5059002;28;20048;-71
2021/12/09 00:39:52;;;;;;;13.02;6.90;;;;;;;;;;5059787;28;20126;-70
2021/12/09 00:42:20;;;;;;;13.02;7.53;;;;;;;;;;5061003;28;20084;-71
2021/12/09 00:44:47;;;;;;;11.82;7.18;;;;;;;;;;5076535;28;20076;-71
2021/12/09 00:47:14;;;;;;;15.85;8.43;;;;;;;;;;5060485;28;20466;-71
2021/12/09 00:49:40;;;;;;;20.75;7.45;;;;;;;;;;5060797;28;20053;-70
2021/12/09 00:52:06;;;;;;;16.75;7.63;;;;;;;;;;5059894;28;20052;-71
2021/12/09 00:54:32;;;;;;;12.88;7.35;;;;;;;;;;5059071;28;20090;-71
2021/12/09 00:56:58;;;;;;;11.45;6.38;;;;;;;;;;5063139;28;20068;-71
2021/12/09 00:59:25;;;;;;;11.77;7.78;;;;;;;;;;5058394;28;20045;-71
2021/12/09 01:01:51;;;;;;;14.02;6.95;;;;;;;;;;5058309;28;20500;-71
2021/12/09 01:04:17;;;;;;;10.05;6.68;;;;;;;;;;5058971;28;20070;-71
2021/12/09 01:06:44;;;;;;;11.75;7.65;;;;;;;;;;5060116;28;20045;-71
2021/12/09 01:09:10;;;;;;;15.35;7.95;;;;;;;;;;5042981;28;20044;-71
2021/12/09 01:11:36;;;;;;;10.90;8.30;;;;;;;;;;5064227;28;20543;-70
2021/12/09 01:14:02;;;;;;;9.77;7.10;;;;;;;;;;5060047;28;20041;-71
2021/12/09 01:16:29;;;;;;;14.82;9.15;;;;;;;;;;5092408;28;20045;-71
2021/12/09 01:18:56;;;;;;;17.63;8.10;;;;;;;;;;5060315;28;20037;-71
2021/12/09 01:21:22;;;;;;;13.18;8.80;;;;;;;;;;5059370;28;20494;-71
2021/12/09 01:23:48;;;;;;;15.65;8.40;;;;;;;;;;5059620;28;20043;-71
2021/12/09 01:26:14;;;;;;;12.95;8.00;;;;;;;;;;5057609;28;20041;-71
2021/12/09 01:28:56;;;;;;;15.32;8.88;;;;;;;;;;5061524;28;20489;-71
2021/12/09 01:31:30;;;;;;;12.02;8.32;;;;;;;;;;5059908;28;20052;-71
2021/12/09 01:34:01;;;;;;;16.02;8.15;;;;;;;;;;5055941;28;20090;-71
2021/12/09 01:36:27;;;;;;;13.15;7.43;;;;;;;;;;5059416;28;20102;-71
2021/12/09 01:38:53;;;;;;;15.05;9.85;;;;;;;;;;5062275;28;20036;-71
2021/12/09 01:41:19;;;;;;;19.48;9.00;;;;;;;;;;5059944;28;20037;-71
2021/12/09 01:43:45;;;;;;;16.55;8.73;;;;;;;;;;5063051;28;20051;-71
2021/12/09 01:46:13;;;;;;;14.73;8.82;;;;;;;;;;5092377;28;20162;-71
2021/12/09 01:48:40;;;;;;;11.43;7.75;;;;;;;;;;5063532;28;20040;-71
2021/12/09 01:51:06;;;;;;;14.57;9.27;;;;;;;;;;5091349;28;20039;-71
2021/12/09 01:53:33;;;;;;;12.77;8.05;;;;;;;;;;5056275;28;20044;-71
2021/12/09 01:56:00;;;;;;;14.95;9.00;;;;;;;;;;5058993;28;20044;-71
2021/12/09 01:58:26;;;;;;;11.85;8.10;;;;;;;;;;5057899;28;20044;-71
2021/12/09 02:00:53;;;;;;;15.48;8.95;;;;;;;;;;5061965;28;20040;-71
2021/12/09 02:03:19;;;;;;;12.18;9.02;;;;;;;;;;5061863;28;20494;-71
2021/12/09 02:05:45;;;;;;;15.63;9.15;;;;;;;;;;5047544;28;20049;-71
2021/12/09 02:08:13;;;;;;;11.50;9.38;;;;;;;;;;5063548;28;20064;-71
2021/12/09 02:10:39;;;;;;;19.83;10.02;;;;;;;;;;5064564;28;20048;-71
2021/12/09 02:13:06;;;;;;;16.77;9.65;;;;;;;;;;5061569;28;20494;-71
2021/12/09 02:15:33;;;;;;;14.73;9.10;;;;;;;;;;5064101;28;20048;-71
2021/12/09 02:18:00;;;;;;;13.88;9.90;;;;;;;;;;5062980;28;20071;-71
2021/12/09 02:20:32;;;;;;;17.27;9.60;;;;;;;;;;5062267;28;20053;-70
2021/12/09 02:22:59;;;;;;;17.52;10.25;;;;;;;;;;5065336;28;20056;-71
2021/12/09 02:25:25;;;;;;;15.77;9.38;;;;;;;;;;5068201;28;20533;-71
2021/12/09 02:27:52;;;;;;;16.40;10.15;;;;;;;;;;5062216;28;20055;-71
2021/12/09 02:30:18;;;;;;;16.52;10.50;;;;;;;;;;5066064;28;20051;-70
2021/12/09 02:32:45;;;;;;;13.05;8.73;;;;;;;;;;5060734;28;20029;-71
2021/12/09 02:35:12;;;;;;;14.88;9.27;;;;;;;;;;5095249;27;20068;-71
2021/12/09 02:37:38;;;;;;;16.48;10.38;;;;;;;;;;5059576;28;20129;-71
2021/12/09 02:40:06;;;;;;;13.50;9.27;;;;;;;;;;5094215;27;20049;-70
2021/12/09 02:42:34;;;;;;;15.98;8.65;;;;;;;;;;5061560;28;20468;-71
2021/12/09 02:45:01;;;;;;;13.02;9.38;;;;;;;;;;5063227;28;20051;-71
2021/12/09 02:47:27;;;;;;;19.42;11.55;;;;;;;;;;5063665;28;20037;-71
2021/12/09 02:49:53;;;;;;;20.67;10.93;;;;;;;;;;5060263;28;20037;-71
2021/12/09 02:52:20;;;;;;;15.02;9.95;;;;;;;;;;5063722;28;20037;-70
2021/12/09 02:54:46;;;;;;;20.15;11.27;;;;;;;;;;5096092;28;20398;-71
2021/12/09 02:57:13;;;;;;;17.33;10.85;;;;;;;;;;5063978;28;20037;-70
2021/12/09 02:59:39;;;;;;;15.27;9.75;;;;;;;;;;5062829;28;20069;-71
2021/12/09 03:02:07;;;;;;;12.73;9.63;;;;;;;;;;5058885;28;20119;-71
2021/12/09 03:04:48;;;;;;;17.00;10.40;;;;;;;;;;5063469;28;20091;-71
2021/12/09 03:07:18;;;;;;;14.15;10.35;;;;;;;;;;5060186;28;20456;-70
2021/12/09 03:09:52;;;;;;;18.63;10.73;;;;;;;;;;5060379;28;20045;-71
2021/12/09 03:12:23;;;;;;;15.70;11.15;;;;;;;;;;5063363;28;20040;-71
2021/12/09 03:14:50;;;;;;;19.10;10.98;;;;;;;;;;5060061;28;20083;-71
2021/12/09 03:17:16;;;;;;;17.92;11.57;;;;;;;;;;5064342;28;20595;-71
2021/12/09 03:19:43;;;;;;;19.30;10.88;;;;;;;;;;5050450;28;20490;-71
2021/12/09 03:22:09;;;;;;;19.40;11.75;;;;;;;;;;5062082;28;20036;-71
2021/12/09 03:24:36;;;;;;;20.33;10.73;;;;;;;;;;5060068;28;20372;-70
2021/12/09 03:27:02;;;;;;;16.58;10.95;;;;;;;;;;5064826;28;20445;-71
2021/12/09 03:29:29;;;;;;;19.08;10.80;;;;;;;;;;5061105;28;20052;-71
2021/12/09 03:31:57;;;;;;;16.27;10.65;;;;;;;;;;5060632;28;21226;-71
2021/12/09 03:34:24;;;;;;;22.88;11.93;;;;;;;;;;5075301;28;20390;-71
2021/12/09 03:36:51;;;;;;;16.33;11.48;;;;;;;;;;5065712;28;20087;-71
2021/12/09 03:39:19;;;;;;;17.55;11.32;;;;;;;;;;5061063;28;20073;-71
2021/12/09 03:41:46;;;;;;;16.95;11.80;;;;;;;;;;5049270;28;20056;-71
2021/12/09 03:44:13;;;;;;;23.10;11.50;;;;;;;;;;5058179;28;20049;-70
2021/12/09 03:46:39;;;;;;;18.75;12.18;;;;;;;;;;5059719;28;20506;-71
2021/12/09 03:49:05;;;;;;;19.58;11.38;;;;;;;;;;5062992;28;20032;-71
2021/12/09 03:51:31;;;;;;;19.92;11.43;;;;;;;;;;5059114;28;20048;-71
2021/12/09 03:53:58;;;;;;;17.92;11.82;;;;;;;;;;5094941;27;20076;-71
2021/12/09 03:56:24;;;;;;;19.02;10.60;;;;;;;;;;5060644;28;20501;-71
2021/12/09 03:58:51;;;;;;;16.58;10.18;;;;;;;;;;5062088;28;20501;-71
2021/12/09 04:01:17;;;;;;;14.35;10.82;;;;;;;;;;5058955;28;20044;-71
2021/12/09 04:03:43;;;;;;;17.83;13.07;;;;;;;;;;5059624;28;20048;-71
2021/12/09 04:06:09;;;;;;;15.05;10.52;;;;;;;;;;5061974;28;20045;-71
2021/12/09 04:17:53;;;;;;;22.27;10.85;;;;;;;;;;5055998;28;20048;-71
2021/12/09 04:20:21;;;;;;;20.67;11.27;;;;;;;;;;5059453;28;20516;-71
2021/12/09 04:22:49;;;;;;;17.95;12.20;;;;;;;;;;5059702;28;20178;-71
2021/12/09 04:25:19;;;;;;;23.90;11.88;;;;;;;;;;5059162;28;20119;-71
2021/12/09 04:27:46;;;;;;;19.77;11.05;;;;;;;;;;5060721;28;20037;-71
2021/12/09 04:30:13;;;;;;;19.58;12.05;;;;;;;;;;5061147;28;20323;-71
2021/12/09 04:32:39;;;;;;;15.15;11.70;;;;;;;;;;5071611;28;20136;-70
2021/12/09 04:35:06;;;;;;;20.27;12.63;;;;;;;;;;5057448;28;20544;-70
2021/12/09 04:37:32;;;;;;;19.05;11.05;;;;;;;;;;5062045;28;20037;-71
2021/12/09 04:40:00;;;;;;;21.35;11.32;;;;;;;;;;5060237;28;20068;-71
2021/12/09 04:42:27;;;;;;;19.40;11.43;;;;;;;;;;5061022;28;20033;-71
2021/12/09 04:44:54;;;;;;;17.25;11.10;;;;;;;;;;5059513;28;20103;-71
2021/12/09 04:47:21;;;;;;;23.55;11.10;;;;;;;;;;5047161;28;20475;-71
2021/12/09 04:49:48;;;;;;;19.55;11.05;;;;;;;;;;5057521;28;20513;-70
2021/12/09 04:52:15;;;;;;;16.67;10.70;;;;;;;;;;5056845;28;20469;-71
2021/12/09 04:54:41;;;;;;;21.33;12.30;;;;;;;;;;5060687;28;20040;-70
2021/12/09 04:57:08;;;;;;;14.88;11.35;;;;;;;;;;5058632;28;20033;-71
2021/12/09 04:59:34;;;;;;;18.40;12.23;;;;;;;;;;5059907;28;20067;-71
2021/12/09 05:02:01;;;;;;;20.05;11.48;;;;;;;;;;5093100;28;20044;-71
2021/12/09 05:04:28;;;;;;;15.60;10.70;;;;;;;;;;5061744;28;20043;-71
2021/12/09 05:06:54;;;;;;;14.55;9.85;;;;;;;;;;5059805;28;20036;-70
2021/12/09 05:09:20;;;;;;;19.30;10.43;;;;;;;;;;5063617;28;20040;-71
2021/12/09 05:11:48;;;;;;;18.45;11.43;;;;;;;;;;5057426;28;20163;-71
2021/12/09 05:14:15;;;;;;;18.17;10.40;;;;;;;;;;5057167;28;20044;-71
2021/12/09 05:16:42;;;;;;;16.50;11.25;;;;;;;;;;5060957;28;20032;-71
2021/12/09 05:19:08;;;;;;;17.65;11.05;;;;;;;;;;5060080;28;20041;-71
2021/12/09 05:21:39;;;;;;;17.42;10.40;;;;;;;;;;5060469;28;20136;-71
2021/12/09 05:24:07;;;;;;;19.25;10.70;;;;;;;;;;5057726;28;20124;-71
2021/12/09 05:26:40;;;;;;;15.10;10.20;;;;;;;;;;5060078;28;20351;-70
2021/12/09 05:29:06;;;;;;;17.75;11.38;;;;;;;;;;5091707;28;20044;-71
2021/12/09 05:34:18;;;;;;;18.58;9.80;;;;;;;;;;5067559;28;20525;-72
2021/12/09 05:36:44;;;;;;;16.38;10.68;;;;;;;;;;5068614;28;20511;-71
2021/12/09 05:39:12;;;;;;;15.52;10.63;;;;;;;;;;5066085;28;20067;-71
2021/12/09 05:41:39;;;;;;;21.27;11.05;;;;;;;;;;5065263;28;20074;-71
2021/12/09 05:44:08;;;;;;;23.48;11.65;;;;;;;;;;5063567;28;20413;-71
2021/12/09 05:46:35;;;;;;;15.07;10.82;;;;;;;;;;5064184;28;20075;-71
2021/12/09 05:49:01;;;;;;;16.42;11.32;;;;;;;;;;5068730;28;20033;-71
2021/12/09 05:51:28;;;;;;;20.55;10.85;;;;;;;;;;5099594;28;20181;-71
2021/12/09 05:53:55;;;;;;;16.70;10.25;;;;;;;;;;5067935;28;20135;-71
2021/12/09 05:56:22;;;;;;;14.75;10.20;;;;;;;;;;5066546;28;20035;-71
2021/12/09 05:58:48;;;;;;;17.27;10.32;;;;;;;;;;5066055;28;20264;-71
2021/12/09 06:01:14;;;;;;;21.20;10.60;;;;;;;;;;5098318;27;20952;-71
2021/12/09 06:03:41;;;;;;;16.58;9.98;;;;;;;;;;5061538;28;20467;-71
2021/12/09 06:06:07;;;;;;;23.33;11.57;;;;;;;;;;5065435;28;20139;-71
2021/12/09 06:08:36;;;;;;;14.77;10.40;;;;;;;;;;5085921;28;20038;-71
2021/12/09 06:11:03;;;;;;;16.23;10.40;;;;;;;;;;5066077;28;20079;-71
2021/12/09 06:13:31;;;;;;;20.13;10.65;;;;;;;;;;5098562;27;20083;-71
2021/12/09 06:15:58;;;;;;;21.70;11.77;;;;;;;;;;5064265;28;20040;-70
2021/12/09 06:18:24;;;;;;;19.58;11.57;;;;;;;;;;5066280;28;20032;-71
2021/12/09 06:20:50;;;;;;;22.15;10.45;;;;;;;;;;5062093;28;20045;-71
2021/12/09 06:23:17;;;;;;;18.95;11.43;;;;;;;;;;5067340;28;20056;-71
2021/12/09 06:25:43;;;;;;;16.67;10.13;;;;;;;;;;5063919;28;20119;-71
2021/12/09 06:28:09;;;;;;;15.20;10.48;;;;;;;;;;5062697;28;20502;-71
2021/12/09 06:30:35;;;;;;;22.05;9.75;;;;;;;;;;5066235;28;20040;-71
2021/12/09 06:33:01;;;;;;;15.32;9.93;;;;;;;;;;5069698;28;20577;-71
2021/12/09 06:35:28;;;;;;;26.77;12.00;;;;;;;;;;5066912;28;20041;-71
2021/12/09 06:37:55;;;;;;;14.65;11.02;;;;;;;;;;5049343;28;20048;-71
2021/12/09 06:40:22;;;;;;;17.58;10.40;;;;;;;;;;5064997;28;20089;-71
2021/12/09 06:42:49;;;;;;;21.63;10.80;;;;;;;;;;5065648;28;20071;-71
2021/12/09 06:45:16;;;;;;;20.35;10.05;;;;;;;;;;5062518;28;20036;-71
2021/12/09 06:47:42;;;;;;;17.10;10.05;;;;;;;;;;5067934;28;20056;-71
2021/12/09 06:50:10;;;;;;;16.65;10.63;;;;;;;;;;5099941;27;20052;-71
2021/12/09 06:52:36;;;;;;;15.45;9.73;;;;;;;;;;5063151;28;20178;-71
2021/12/09 06:55:04;;;;;;;19.02;11.00;;;;;;;;;;5068345;28;20037;-71
2021/12/09 06:57:30;;;;;;;15.15;10.20;;;;;;;;;;5063284;28;20413;-71
2021/12/09 06:59:56;;;;;;;16.75;9.75;;;;;;;;;;5061926;28;20036;-71
2021/12/09 07:02:22;;;;;;;16.70;10.98;;;;;;;;;;5066834;28;20036;-71
2021/12/09 07:04:48;;;;;;;17.30;10.38;;;;;;;;;;5063201;28;20053;-71
2021/12/09 07:07:14;;;;;;;18.95;9.48;;;;;;;;;;5064515;28;20036;-71
2021/12/09 07:09:41;;;;;;;17.48;10.23;;;;;;;;;;5062122;28;20032;-71
2021/12/09 07:12:08;;;;;;;16.23;9.73;;;;;;;;;;5064334;28;20124;-70
2021/12/09 07:14:34;;;;;;;12.73;9.43;;;;;;;;;;5067377;28;20040;-70
2021/12/09 07:17:00;;;;;;;20.75;10.93;;;;;;;;;;5064276;28;20703;-71
2021/12/09 07:19:27;;;;;;;18.15;10.25;;;;;;;;;;5066611;28;20667;-71
2021/12/09 07:21:53;;;;;;;19.10;10.23;;;;;;;;;;5064929;28;20055;-71
2021/12/09 07:24:19;;;;;;;19.67;9.85;;;;;;;;;;5066335;28;20048;-71
2021/12/09 07:26:45;;;;;;;12.65;10.13;;;;;;;;;;5079925;28;20127;-71
2021/12/09 07:29:12;;;;;;;15.65;9.68;;;;;;;;;;5067786;28;20052;-71
2021/12/09 07:31:38;;;;;;;16.60;9.73;;;;;;;;;;5062557;28;20048;-71
2021/12/09 07:34:04;;;;;;;15.68;11.40;;;;;;;;;;5062634;28;20079;-71
2021/12/09 07:36:31;;;;;;;14.57;9.73;;;;;;;;;;5064222;28;20036;-71
2021/12/09 07:38:57;;;;;;;13.70;9.73;;;;;;;;;;5065881;28;20368;-71
2021/12/09 07:41:24;;;;;;;17.63;9.50;;;;;;;;;;5060382;28;20033;-71
2021/12/09 07:43:51;;;;;;;21.58;11.18;;;;;;;;;;5065533;28;20037;-71
2021/12/09 07:46:18;;;;;;;22.63;9.85;;;;;;;;;;5062320;28;20049;-71
2021/12/09 07:48:44;;;;;;;15.85;9.45;;;;;;;;;;5062378;28;20041;-71
2021/12/09 07:51:10;;;;;;;15.65;10.48;;;;;;;;;;5067119;28;20041;-71
2021/12/09 07:53:36;;;;;;;17.45;8.98;;;;;;;;;;5060317;28;20036;-71
2021/12/09 07:56:04;;;;;;;17.50;10.07;;;;;;;;;;5063633;28;20045;-72
2021/12/09 07:58:32;;;;;;;18.17;9.73;;;;;;;;;;5064084;28;20037;-71
2021/12/09 08:00:58;;;;;;;14.23;10.13;;;;;;;;;;5060170;28;20037;-71
2021/12/09 08:03:25;;;;;;;17.23;10.18;;;;;;;;;;5066825;28;20376;-71
2021/12/09 08:05:52;;;;;;;16.77;10.05;;;;;;;;;;5097520;28;20074;-71
2021/12/09 08:08:18;;;;;;;22.45;10.15;;;;;;;;;;5065577;28;20957;-71
2021/12/09 08:10:45;;;;;;;12.32;9.18;;;;;;;;;;5070904;28;20052;-71
2021/12/09 08:13:13;;;;;;;13.68;9.48;;;;;;;;;;5050474;28;20044;-71
2021/12/09 08:15:45;;;;;;;17.13;10.90;;;;;;;;;;5063414;28;20041;-71
2021/12/09 08:20:49;;;;;;;18.10;10.65;;;;;;;;;;5063933;28;20298;-71
2021/12/09 08:23:15;;;;;;;15.98;9.82;;;;;;;;;;5066175;28;20122;-71
2021/12/09 08:25:42;;;;;;;19.50;9.95;;;;;;;;;;5064102;28;20389;-71
2021/12/09 08:28:08;;;;;;;21.15;9.73;;;;;;;;;;5060508;28;20052;-71
2021/12/09 08:30:36;;;;;;;12.15;9.00;;;;;;;;;;5064045;28;20068;-71
2021/12/09 08:33:04;;;;;;;20.88;10.73;;;;;;;;;;5103677;28;20048;-71
2021/12/09 08:35:30;;;;;;;18.85;9.70;;;;;;;;;;5069151;28;20454;-71
2021/12/09 08:37:58;;;;;;;20.85;10.80;;;;;;;;;;5065874;28;20378;-71
2021/12/09 08:40:25;;;;;;;13.88;9.10;;;;;;;;;;5071239;28;20045;-71
2021/12/09 08:42:51;;;;;;;16.90;10.35;;;;;;;;;;5070731;28;20033;-71
2021/12/09 08:45:18;;;;;;;18.08;10.52;;;;;;;;;;5059187;28;20040;-71
2021/12/09 08:47:45;;;;;;;16.77;10.23;;;;;;;;;;5065849;28;20048;-71
2021/12/09 08:50:13;;;;;;;15.85;8.98;;;;;;;;;;5065766;28;20033;-71
2021/12/09 08:52:39;;;;;;;18.83;9.73;;;;;;;;;;5069271;28;20102;-71
2021/12/09 08:55:05;;;;;;;18.30;10.00;;;;;;;;;;5063640;28;20490;-71
2021/12/09 08:57:32;;;;;;;18.67;9.35;;;;;;;;;;5070451;28;20041;-71
2021/12/09 08:59:59;;;;;;;18.48;10.13;;;;;;;;;;5067017;28;20044;-71
2021/12/09 09:02:26;;;;;;;16.50;10.05;;;;;;;;;;5066305;28;20140;-71
2021/12/09 09:04:52;;;;;;;16.60;9.50;;;;;;;;;;5052458;28;20044;-71
2021/12/09 09:07:18;;;;;;;15.43;9.15;;;;;;;;;;5068583;28;20039;-71
2021/12/09 09:09:45;;;;;;;18.75;10.13;;;;;;;;;;5097522;27;20048;-71
2021/12/09 09:12:13;;;;;;;16.02;10.18;;;;;;;;;;5073127;28;20067;-71
2021/12/09 09:14:41;;;;;;;13.18;8.75;;;;;;;;;;5069715;28;20053;-71
2021/12/09 09:17:07;;;;;;;15.88;9.90;;;;;;;;;;5067471;28;20123;-71
2021/12/09 09:19:33;;;;;;;16.45;8.88;;;;;;;;;;5070428;28;20040;-71
2021/12/09 09:22:00;;;;;;;13.77;9.32;;;;;;;;;;5065686;28;20088;-71
2021/12/09 09:24:26;;;;;;;21.65;10.63;;;;;;;;;;5069479;28;20050;-71
2021/12/09 09:26:52;;;;;;;17.67;9.73;;;;;;;;;;5067337;28;20163;-71
2021/12/09 09:29:19;;;;;;;21.73;9.73;;;;;;;;;;5070871;28;20048;-71
2021/12/09 09:31:45;;;;;;;17.65;9.48;;;;;;;;;;5069712;28;20037;-71
2021/12/09 09:34:12;;;;;;;12.70;8.55;;;;;;;;;;5069268;28;20048;-71
2021/12/09 09:36:44;;;;;;;13.50;9.05;;;;;;;;;;5067843;28;20040;-71
2021/12/09 09:39:19;;;;;;;16.10;8.80;;;;;;;;;;5064856;28;20410;-71
2021/12/09 09:41:58;;;;;;;12.52;8.60;;;;;;;;;;5065339;28;20066;-71
2021/12/09 09:44:32;;;;;;;16.67;9.98;;;;;;;;;;5095968;28;20053;-71
2021/12/09 09:46:59;;;;;;;13.75;8.65;;;;;;;;;;5064639;28;20044;-71
2021/12/09 09:49:25;;;;;;;18.33;8.85;;;;;;;;;;5062906;28;20496;-71
2021/12/09 09:51:52;;;;;;;15.80;8.35;;;;;;;;;;5062341;28;20045;-70
2021/12/09 09:54:18;;;;;;;13.80;8.65;;;;;;;;;;5064305;28;20080;-71
2021/12/09 09:56:44;;;;;;;16.92;8.52;;;;;;;;;;5062855;28;20041;-71
2021/12/09 09:59:17;;;;;;;13.85;8.02;;;;;;;;;;5063286;28;20044;-71
2021/12/09 10:01:44;;;;;;;17.98;8.52;;;;;;;;;;5062267;28;20124;-71
2021/12/09 10:04:12;;;;;;;13.63;8.15;;;;;;;;;;5059959;28;20098;-71
2021/12/09 10:06:42;;;;;;;14.63;7.60;;;;;;;;;;5058208;28;20045;-71
2021/12/09 10:09:09;;;;;;;13.18;8.90;;;;;;;;;;5059309;28;20591;-71
2021/12/09 10:11:35;;;;;;;17.23;9.38;;;;;;;;;;5060897;28;20132;-71
2021/12/09 10:14:12;;;;;;;13.45;8.45;;;;;;;;;;5058847;28;20053;-70
2021/12/09 10:16:39;;;;;;;13.18;8.38;;;;;;;;;;5062390;28;20474;-72
2021/12/09 10:19:15;;;;;;;19.88;8.85;;;;;;;;;;5063321;28;20048;-71
2021/12/09 10:21:42;;;;;;;13.90;7.72;;;;;;;;;;5062174;28;20498;-71
2021/12/09 10:24:09;;;;;;;13.85;7.57;;;;;;;;;;5061569;28;20088;-71
2021/12/09 10:26:40;;;;;;;15.35;8.57;;;;;;;;;;5060485;28;20071;-71
2021/12/09 10:29:06;;;;;;;15.35;8.27;;;;;;;;;;5061994;28;20052;-71
2021/12/09 10:31:40;;;;;;;16.65;8.10;;;;;;;;;;5063355;28;20044;-71
2021/12/09 10:34:13;;;;;;;16.13;8.35;;;;;;;;;;5060853;28;20049;-70
2021/12/09 10:36:44;;;;;;;16.92;8.40;;;;;;;;;;5068998;28;20044;-71
2021/12/09 10:39:14;;;;;;;23.40;9.18;;;;;;;;;;5064634;28;20505;-71
2021/12/09 10:41:42;;;;;;;20.27;10.55;;;;;;;;;;5067325;28;20410;-71
2021/12/09 10:44:08;;;;;;;17.70;9.40;;;;;;;;;;5062355;28;20037;-71
2021/12/09 10:46:56;;;;;;;18.52;11.35;;;;;;;;;;5065160;28;20114;-71
2021/12/09 10:49:23;;;;;;;18.50;10.07;;;;;;;;;;5094696;28;20400;-71
2021/12/09 10:51:57;;;;;;;21.83;11.00;;;;;;;;;;5058780;28;20043;-71
2021/12/09 10:54:34;;;;;;;22.75;12.13;;;;;;;;;;5061143;28;20049;-71
2021/12/09 10:57:27;;;;;;;21.95;12.30;;;;;;;;;;5058610;28;20044;-71
2021/12/09 10:59:53;;;;;;;31.10;13.97;;;;;;;;;;5058376;28;20041;-71
2021/12/09 11:02:19;;;;;;;23.58;13.30;;;;;;;;;;5060806;28;20399;-71
2021/12/09 11:05:04;;;;;;;23.40;13.50;;;;;;;;;;5093643;28;20627;-71
2021/12/09 11:07:31;;;;;;;31.42;12.75;;;;;;;;;;5060974;28;20040;-71
2021/12/09 11:10:14;;;;;;;26.63;14.82;;;;;;;;;;5056507;28;20048;-70
2021/12/09 11:12:48;;;;;;;22.93;13.13;;;;;;;;;;5098378;27;20047;-71
2021/12/09 11:15:15;;;;;;;21.73;14.50;;;;;;;;;;5050620;28;20032;-71
2021/12/09 11:17:45;;;;;;;30.30;15.90;;;;;;;;;;5060094;28;20159;-71
2021/12/09 11:20:11;;;;;;;25.10;15.75;;;;;;;;;;5063277;28;20048;-71
2021/12/09 11:22:39;;;;;;;29.65;15.10;;;;;;;;;;5062690;28;20060;-71
2021/12/09 11:25:29;;;;;;;27.92;15.43;;;;;;;;;;5061660;28;20044;-70
2021/12/09 11:28:14;;;;;;;24.23;14.15;;;;;;;;;;5062764;28;20044;-71
2021/12/09 11:31:03;;;;;;;29.30;14.48;;;;;;;;;;5057592;28;20132;-70
2021/12/09 11:33:32;;;;;;;25.55;14.52;;;;;;;;;;5066473;28;20406;-71
2021/12/09 11:36:01;;;;;;;25.92;14.35;;;;;;;;;;5051328;28;20545;-71
2021/12/09 11:38:54;;;;;;;28.05;14.60;;;;;;;;;;5059284;28;20528;-71
2021/12/09 11:41:31;;;;;;;22.02;14.95;;;;;;;;;;5062644;28;20064;-71
2021/12/09 11:43:57;;;;;;;31.08;15.30;;;;;;;;;;5065540;28;20497;-70
2021/12/09 11:46:23;;;;;;;26.90;14.30;;;;;;;;;;5098381;28;20102;-70
2021/12/09 11:48:49;;;;;;;25.33;14.48;;;;;;;;;;5065037;28;20044;-71
2021/12/09 11:51:15;;;;;;;34.78;16.42;;;;;;;;;;5093005;28;20049;-70
2021/12/09 11:53:44;;;;;;;22.80;15.27;;;;;;;;;;5057514;28;20091;-70
2021/12/09 11:56:28;;;;;;;21.50;15.57;;;;;;;;;;5059604;28;20121;-71
2021/12/09 12:06:39;;;;;;;25.75;15.00;;;;;;;;;;5059807;28;20037;-70
2021/12/09 12:12:45;;;;;;;28.05;14.85;;;;;;;;;;5051652;28;20048;-72
2021/12/09 12:15:25;;;;;;;24.60;15.48;;;;;;;;;;5055421;28;20127;-71
2021/12/09 12:26:44;;;;;;;25.33;15.48;;;;;;;;;;5085019;28;20132;-71
2021/12/09 12:40:23;;;;;;;31.92;18.00;;;;;;;;;;5060452;28;20049;-71
2021/12/09 12:43:08;;;;;;;31.30;17.63;;;;;;;;;;5087039;28;20494;-71
2021/12/09 12:45:49;;;;;;;31.88;17.95;;;;;;;;;;5050999;28;20130;-71
2021/12/09 12:51:13;;;;;;;25.95;16.30;;;;;;;;;;5052221;28;20040;-71
2021/12/09 12:53:43;;;;;;;26.27;16.67;;;;;;;;;;5051004;28;20575;-70
2021/12/09 12:56:13;;;;;;;27.73;17.30;;;;;;;;;;5052123;28;20158;-71
2021/12/09 12:58:40;;;;;;;27.00;15.02;;;;;;;;;;5051242;28;20041;-71
2021/12/09 13:01:20;;;;;;;29.48;16.50;;;;;;;;;;5051931;28;20037;-71
2021/12/09 13:03:52;;;;;;;55.13;18.10;;;;;;;;;;5053584;28;20044;-71
2021/12/09 13:06:38;;;;;;;29.65;18.17;;;;;;;;;;5055932;28;20052;-71
2021/12/09 13:09:33;;;;;;;30.08;16.88;;;;;;;;;;5058132;28;20040;-71
2021/12/09 13:12:07;;;;;;;32.10;16.38;;;;;;;;;;5051591;28;20044;-71
2021/12/09 13:14:36;;;;;;;31.60;15.65;;;;;;;;;;5055910;28;20036;-71
2021/12/09 13:17:11;;;;;;;30.45;17.50;;;;;;;;;;5062847;28;20036;-71
2021/12/09 13:20:05;;;;;;;28.60;16.30;;;;;;;;;;5057368;28;20044;-71
2021/12/09 13:22:38;;;;;;;27.52;17.23;;;;;;;;;;5046156;28;20118;-71
2021/12/09 13:25:13;;;;;;;30.95;16.92;;;;;;;;;;5051345;28;20041;-71
2021/12/09 13:28:04;;;;;;;35.47;15.50;;;;;;;;;;5051860;28;20044;-71
2021/12/09 13:55:09;;;;;;;28.67;15.68;;;;;;;;;;5089609;28;20527;-71
2021/12/09 13:57:35;;;;;;;30.80;17.50;;;;;;;;;;5060241;28;20040;-71
2021/12/09 14:00:04;;;;;;;31.02;16.75;;;;;;;;;;5061120;28;20041;-71
2021/12/09 14:02:30;;;;;;;30.50;16.60;;;;;;;;;;5058402;28;20033;-71
2021/12/09 14:04:58;;;;;;;31.45;16.75;;;;;;;;;;5095986;28;20089;-70
2021/12/09 14:07:28;;;;;;;33.35;17.05;;;;;;;;;;5062325;28;20055;-71
2021/12/09 14:10:12;;;;;;;28.50;15.32;;;;;;;;;;5058860;28;20051;-71
2021/12/09 14:12:47;;;;;;;33.15;16.20;;;;;;;;;;5064064;28;20141;-71
2021/12/09 14:15:20;;;;;;;27.30;15.77;;;;;;;;;;5062267;28;20045;-71
2021/12/09 14:17:58;;;;;;;32.97;16.48;;;;;;;;;;5061491;28;20371;-71
2021/12/09 14:20:24;;;;;;;35.42;17.75;;;;;;;;;;5061826;28;20033;-71
2021/12/09 14:22:51;;;;;;;33.60;17.13;;;;;;;;;;5062259;28;20045;-70
2021/12/09 14:25:23;;;;;;;37.45;17.08;;;;;;;;;;5059600;28;20043;-71
2021/12/09 14:27:50;;;;;;;28.63;15.88;;;;;;;;;;5063446;28;20037;-71
2021/12/09 14:30:17;;;;;;;29.60;15.73;;;;;;;;;;5060727;28;20541;-71
2021/12/09 14:32:48;;;;;;;28.80;17.08;;;;;;;;;;5064424;28;20485;-71
2021/12/09 14:35:22;;;;;;;27.63;15.25;;;;;;;;;;5064434;28;20040;-71
2021/12/09 14:37:51;;;;;;;30.63;17.13;;;;;;;;;;5060417;28;20041;-71
2021/12/09 14:40:19;;;;;;;29.80;16.35;;;;;;;;;;5062684;28;20045;-71
2021/12/09 14:42:55;;;;;;;26.67;16.85;;;;;;;;;;5066840;28;20036;-71
2021/12/09 14:45:22;;;;;;;32.35;14.95;;;;;;;;;;5058425;28;20047;-71
2021/12/09 14:48:00;;;;;;;33.95;16.60;;;;;;;;;;5062631;28;20070;-71
2021/12/09 14:50:33;;;;;;;28.20;17.33;;;;;;;;;;5063910;28;20040;-71
2021/12/09 14:53:00;;;;;;;28.35;16.73;;;;;;;;;;5059195;28;20040;-71
2021/12/09 14:55:28;;;;;;;27.30;17.35;;;;;;;;;;5057315;28;20049;-71
2021/12/09 14:57:56;;;;;;;26.88;15.63;;;;;;;;;;5060982;28;20393;-71
2021/12/09 15:00:34;;;;;;;32.05;16.05;;;;;;;;;;5060332;28;20533;-71
2021/12/09 15:03:02;;;;;;;27.45;15.38;;;;;;;;;;5061326;28;20033;-71
2021/12/09 15:05:30;;;;;;;31.90;15.13;;;;;;;;;;5062630;28;20044;-71
2021/12/09 15:08:06;;;;;;;34.10;16.08;;;;;;;;;;5058911;28;20052;-71
2021/12/09 15:10:33;;;;;;;29.27;15.95;;;;;;;;;;5061869;28;20045;-71
2021/12/09 15:13:00;;;;;;;30.50;16.13;;;;;;;;;;5060421;28;20040;-71
2021/12/09 15:15:29;;;;;;;33.70;16.02;;;;;;;;;;5097587;28;20077;-71
2021/12/09 15:18:00;;;;;;;38.28;15.80;;;;;;;;;;5066130;28;20032;-71
2021/12/09 15:20:54;;;;;;;32.67;15.70;;;;;;;;;;5061118;28;20489;-70
2021/12/09 15:23:30;;;;;;;25.40;15.73;;;;;;;;;;5058212;28;20059;-71
2021/12/09 15:25:57;;;;;;;37.08;16.73;;;;;;;;;;5090100;28;20040;-71
2021/12/09 15:28:24;;;;;;;29.20;15.52;;;;;;;;;;5058618;28;20174;-71
2021/12/09 15:30:52;;;;;;;30.58;16.42;;;;;;;;;;5048060;28;20118;-71
2021/12/09 15:33:21;;;;;;;25.45;17.35;;;;;;;;;;5061324;28;20044;-71
2021/12/09 15:35:58;;;;;;;34.58;17.88;;;;;;;;;;5059682;28;20084;-71
2021/12/09 15:38:25;;;;;;;27.77;16.83;;;;;;;;;;5056992;28;20486;-71
2021/12/09 15:40:51;;;;;;;36.08;16.70;;;;;;;;;;5059265;28;20046;-71
2021/12/09 15:43:19;;;;;;;31.55;17.08;;;;;;;;;;5055638;28;20151;-70